Estación Meteorológica Peña el Pijo (Robertgarden) [ 01/17/18 13:58:16 CET ]

Fecha Hora Presion(HPa) Temp (°C) Humedad % Rocio (°C) Viento ( m/s) Direccion Lluvia 1Hora(mm) Lluvia 24H(mm) LLuvia Total(mm)
2018-Jan-11 01:01:36 1009.200 4.1 78 0.6       2.07 33.15
2018-Jan-11 02:01:44 1009.200 4.1 76 0.2       2.07 33.15
2018-Jan-11 03:01:41 1009.600 4.1 72 -0.5 3.9 WNW   1.55 33.15
2018-Jan-11 04:04:09 1010.200 3.6 71 -1.2       1.55 33.15
2018-Jan-11 05:01:25 1010.000 2.9 71 -1.6       1.55 33.15
2018-Jan-11 06:01:38 1009.800 2.9 70 -2.0 2.7 NW   1.55 33.15
2018-Jan-11 07:01:47 1010.000 2.6 71 -2.1       1.55 33.15
2018-Jan-11 08:01:46 1009.700 2.1 73 -2.3       1.55 33.15
2018-Jan-11 09:01:52 1009.600 2.5 74 -1.7       1.55 33.15
2018-Jan-11 10:01:47 1009.900 4.1 74 -0.1       1.55 33.15
2018-Jan-11 11:01:44 1010.400 3.4 77 -0.3       1.55 33.15
2018-Jan-11 12:02:02 1010.300 3.9 81 1.0     1.03 2.59 34.18
2018-Jan-11 13:01:53 1009.100 3.9 81 1.0     0.51 3.10 34.70
2018-Jan-11 14:01:46 1009.200 2.4 78 -1.1       3.10 34.70
2018-Jan-11 15:01:46 1009.100 1.8 83 -0.8     1.03 4.14 35.74
2018-Jan-11 16:01:49 1009.500 4.2 81 1.2     0.51 4.66 36.26
2018-Jan-11 17:01:53 1009.800 3.6 78 0.1 0.6 NNW   4.66 36.26
2018-Jan-11 18:01:46 1010.500 1.4 82 -1.4       4.66 36.26
2018-Jan-11 19:01:57 1010.900 1.3 84 -1.2       4.66 36.26
2018-Jan-11 20:01:37 1011.800 1.3 85 -1.0       4.66 36.26
2018-Jan-11 21:02:00 1011.900 1.5 85 -0.8       4.66 36.26
2018-Jan-11 22:01:48 1011.900 1.3 84 -1.2       3.62 36.26
2018-Jan-11 23:01:47 1011.800 1.8 83 -0.8       3.10 36.26

Temperatura Máxima:    Temperatura Mínima:
Presión Máxima:1011.900 Hpa    Presión Mínima:1009.100 Hpa


Volver